Time;durP1;ratioP1;P1;durP2;ratioP2;P2;SDS_P1;SDS_P2;PMS_P1;PMS_P2;Temp;Humidity;BMP_temperature;BMP_pressure;BME280_temperature;BME280_humidity;BME280_pressure;Samples;Min_cycle;Max_cycle;Signal;HPM_P1;HPM_P2
2024/04/18 00:00:35;;;;;;;2.70;2.13;;;;;;;4.80;100.00;101476.59;5471900;26;20003;-39
2024/04/18 00:03:01;;;;;;;2.00;1.80;;;;;;;4.83;100.00;101471.72;5471463;26;19994;-39
2024/04/18 00:05:26;;;;;;;3.83;2.47;;;;;;;4.81;100.00;101467.53;5463248;26;19998;-39
2024/04/18 00:07:51;;;;;;;4.10;2.50;;;;;;;4.78;100.00;101483.94;5456242;26;19995;-39
2024/04/18 00:10:17;;;;;;;3.60;2.10;;;;;;;4.72;100.00;101472.09;5456456;26;20007;-39
2024/04/18 00:12:42;;;;;;;3.13;2.17;;;;;;;4.65;100.00;101471.16;5456051;26;19995;-39
2024/04/18 00:15:08;;;;;;;2.47;2.25;;;;;;;4.77;100.00;101490.31;5456977;26;20005;-39
2024/04/18 00:17:34;;;;;;;4.38;1.98;;;;;;;4.76;100.00;101492.19;5456305;26;19995;-39
2024/04/18 00:19:59;;;;;;;;;;;;;;;4.90;100.00;101487.91;5456584;26;20487;-39
2024/04/18 00:22:25;;;;;;;3.23;2.20;;;;;;;4.82;100.00;101490.63;5455922;26;19950;-39
2024/04/18 00:24:50;;;;;;;2.33;1.90;;;;;;;4.82;100.00;101490.63;5455876;26;19986;-39
2024/04/18 00:27:15;;;;;;;2.80;1.93;;;;;;;4.69;100.00;101507.31;5456231;26;19995;-39
2024/04/18 00:29:42;;;;;;;2.93;1.97;;;;;;;4.70;100.00;101503.59;5456152;26;19995;-39
2024/04/18 00:32:11;;;;;;;2.10;1.90;;;;;;;4.65;100.00;101501.44;5456381;26;19991;-39
2024/04/18 00:34:36;;;;;;;3.25;2.00;;;;;;;4.64;100.00;101504.31;5455679;26;19991;-39
2024/04/18 00:37:02;;;;;;;2.73;1.87;;;;;;;4.67;100.00;101511.16;5455450;26;19999;-39
2024/04/18 00:39:27;;;;;;;3.20;2.10;;;;;;;4.70;100.00;101517.00;5456264;26;20725;-39
2024/04/18 00:41:52;;;;;;;1.93;1.73;;;;;;;4.78;100.00;101521.47;5455714;26;20010;-39
2024/04/18 00:44:18;;;;;;;2.47;2.23;;;;;;;4.80;100.00;101519.47;5455752;26;19994;-39
2024/04/18 00:46:45;;;;;;;3.27;2.20;;;;;;;4.77;100.00;101504.56;5455795;26;19995;-39
2024/04/18 00:49:11;;;;;;;2.97;2.00;;;;;;;4.84;100.00;101515.41;5455855;26;19995;-39
2024/04/18 00:51:37;;;;;;;2.67;1.80;;;;;;;4.82;100.00;101507.53;5455314;26;20013;-39
2024/04/18 00:54:03;;;;;;;3.65;2.50;;;;;;;4.92;100.00;101512.66;5455241;26;20010;-39
2024/04/18 00:56:28;;;;;;;2.08;1.88;;;;;;;4.89;100.00;101519.25;5455132;26;20393;-39
2024/04/18 00:58:53;;;;;;;3.80;2.47;;;;;;;4.90;100.00;101509.34;5455808;26;20021;-39
2024/04/18 01:01:20;;;;;;;2.40;1.90;;;;;;;4.89;100.00;101505.00;5455229;26;20011;-39
2024/04/18 01:03:46;;;;;;;2.45;1.98;;;;;;;4.98;100.00;101519.16;5455345;26;20009;-39
2024/04/18 01:06:12;;;;;;;2.17;1.98;;;;;;;5.01;100.00;101525.00;5455353;26;20035;-39
2024/04/18 01:08:39;;;;;;;2.97;2.10;;;;;;;4.95;100.00;101523.03;5455074;26;19991;-39
2024/04/18 01:11:05;;;;;;;2.65;2.13;;;;;;;4.89;100.00;101515.72;5455245;26;20307;-39
2024/04/18 01:13:39;;;;;;;3.97;2.08;;;;;;;4.91;100.00;101530.59;5454797;26;20010;-39
2024/04/18 01:16:05;;;;;;;2.78;2.10;;;;;;;4.85;100.00;101522.44;5454585;26;20005;-39
2024/04/18 01:18:31;;;;;;;2.28;1.90;;;;;;;4.99;100.00;101534.25;5454388;26;20040;-39
2024/04/18 01:20:56;;;;;;;;;;;;;;;5.07;100.00;101534.19;5455681;26;20462;-39
2024/04/18 01:23:23;;;;;;;1.80;1.70;;;;;;;5.00;100.00;101539.44;5454726;26;19932;-39
2024/04/18 01:25:48;;;;;;;3.38;2.10;;;;;;;4.91;100.00;101541.31;5455320;26;19998;-39
2024/04/18 01:28:13;;;;;;;5.40;2.10;;;;;;;4.95;100.00;101549.03;5454719;26;20487;-39
2024/04/18 01:30:40;;;;;;;2.73;2.30;;;;;;;4.95;100.00;101549.03;5455488;26;20349;-39
2024/04/18 01:33:05;;;;;;;2.72;2.28;;;;;;;4.96;100.00;101550.69;5454631;26;20022;-39
2024/04/18 01:35:30;;;;;;;2.95;2.40;;;;;;;4.88;100.00;101540.81;5454925;26;19990;-39
2024/04/18 01:37:56;;;;;;;2.80;2.13;;;;;;;5.00;100.00;101554.69;5454266;26;20457;-39
2024/04/18 01:40:21;;;;;;;2.70;2.03;;;;;;;5.03;100.00;101557.84;5454955;26;19991;-39
2024/04/18 01:42:46;;;;;;;2.43;2.10;;;;;;;5.07;100.00;101561.00;5454692;26;20003;-39
2024/04/18 01:45:12;;;;;;;3.07;2.20;;;;;;;4.99;100.00;101555.69;5454572;26;20064;-38
2024/04/18 01:47:37;;;;;;;3.10;2.40;;;;;;;5.00;100.00;101568.91;5454484;26;20324;-39
2024/04/18 01:50:02;;;;;;;2.10;1.90;;;;;;;4.98;100.00;101562.91;5454824;26;20208;-39
2024/04/18 01:52:28;;;;;;;2.83;2.15;;;;;;;5.00;100.00;101565.41;5454543;26;19998;-39
2024/04/18 01:54:53;;;;;;;2.83;1.90;;;;;;;5.02;100.00;101564.19;5454870;26;20307;-39
2024/04/18 01:57:18;;;;;;;2.30;1.87;;;;;;;5.03;100.00;101575.78;5455108;26;20417;-39
2024/04/18 01:59:44;;;;;;;3.00;1.90;;;;;;;5.10;100.00;101579.41;5454990;26;20392;-39
2024/04/18 02:02:10;;;;;;;3.70;2.10;;;;;;;5.08;100.00;101576.09;5454862;26;20041;-38
2024/04/18 02:04:35;;;;;;;2.83;2.40;;;;;;;4.93;100.00;101567.09;5455186;26;20010;-38
2024/04/18 02:07:00;;;;;;;3.10;2.00;;;;;;;5.04;100.00;101582.81;5454528;26;20033;-37
2024/04/18 02:09:26;;;;;;;2.83;1.93;;;;;;;5.09;100.00;101577.75;5454472;26;19997;-37
2024/04/18 02:11:51;;;;;;;2.33;2.00;;;;;;;5.05;100.00;101587.97;5454234;26;19995;-37
2024/04/18 02:14:16;;;;;;;3.87;2.30;;;;;;;5.03;100.00;101586.50;5454670;26;20071;-37
2024/04/18 02:16:42;;;;;;;2.93;2.00;;;;;;;5.05;100.00;101584.47;5454065;26;19998;-39
2024/04/18 02:19:07;;;;;;;2.63;1.80;;;;;;;5.10;100.00;101585.59;5455002;26;20005;-39
2024/04/18 02:21:32;;;;;;;2.73;2.07;;;;;;;5.12;100.00;101591.66;5454025;26;20001;-39
2024/04/18 02:23:58;;;;;;;2.60;2.00;;;;;;;5.12;100.00;101591.66;5453910;26;20002;-39
2024/04/18 02:26:23;;;;;;;2.57;2.23;;;;;;;5.14;100.00;101602.19;5452275;26;20003;-39
2024/04/18 02:28:48;;;;;;;2.20;2.00;;;;;;;5.12;100.00;101598.81;5453525;26;20005;-39
2024/04/18 02:31:13;;;;;;;4.20;2.10;;;;;;;5.07;100.00;101590.47;5453553;26;19995;-39
2024/04/18 02:33:39;;;;;;;2.30;1.90;;;;;;;5.16;100.00;101605.50;5454444;26;20056;-39
2024/04/18 02:36:04;;;;;;;3.23;2.13;;;;;;;5.12;100.00;101605.06;5454381;26;20005;-39
2024/04/18 02:38:30;;;;;;;2.20;1.98;;;;;;;5.10;100.00;101612.41;5454010;26;19995;-39
2024/04/18 02:41:03;;;;;;;3.70;2.43;;;;;;;5.12;100.00;101609.56;5454449;26;20005;-39
2024/04/18 02:43:28;;;;;;;2.63;2.10;;;;;;;5.05;100.00;101614.78;5453617;26;19999;-39
2024/04/18 02:45:54;;;;;;;2.30;2.10;;;;;;;5.02;100.00;101616.97;5453556;26;20006;-39
2024/04/18 02:48:20;;;;;;;2.03;1.77;;;;;;;5.04;100.00;101617.66;5453557;26;20014;-39
2024/04/18 02:50:45;;;;;;;2.27;1.90;;;;;;;5.02;100.00;101623.16;5453905;26;20068;-39
2024/04/18 02:53:10;;;;;;;2.50;2.30;;;;;;;4.97;100.00;101619.34;5453198;26;20091;-39
2024/04/18 02:55:35;;;;;;;4.37;2.40;;;;;;;4.93;100.00;101628.75;5453528;26;20435;-39
2024/04/18 02:58:01;;;;;;;3.27;2.10;;;;;;;4.85;100.00;101629.63;5453417;26;19994;-39
2024/04/18 03:00:26;;;;;;;2.90;1.90;;;;;;;4.89;100.00;101631.81;5454042;26;20010;-39
2024/04/18 03:02:51;;;;;;;3.23;1.93;;;;;;;4.94;100.00;101638.47;5453325;26;20451;-39
2024/04/18 03:05:17;;;;;;;2.37;2.17;;;;;;;4.80;100.00;101615.94;5453574;26;19991;-39
2024/04/18 03:07:42;;;;;;;2.63;2.10;;;;;;;4.91;100.00;101640.50;5453178;26;20040;-39
2024/04/18 03:10:07;;;;;;;2.77;2.30;;;;;;;4.79;100.00;101624.97;5453274;26;20449;-39
2024/04/18 03:12:33;;;;;;;2.67;2.27;;;;;;;4.88;100.00;101640.00;5453154;26;20075;-39
2024/04/18 03:14:58;;;;;;;2.43;2.10;;;;;;;4.87;100.00;101641.00;5453726;26;20006;-39
2024/04/18 03:17:23;;;;;;;3.00;1.80;;;;;;;4.84;100.00;101644.88;5453150;26;19999;-39
2024/04/18 03:19:48;;;;;;;3.30;2.20;;;;;;;4.83;100.00;101648.59;5453099;26;20005;-39
2024/04/18 03:22:14;;;;;;;2.10;1.87;;;;;;;4.81;100.00;101649.75;5451581;26;19995;-39
2024/04/18 03:24:39;;;;;;;2.80;1.90;;;;;;;4.83;100.00;101647.72;5453200;26;19991;-39
2024/04/18 03:27:04;;;;;;;2.67;2.00;;;;;;;4.76;100.00;101657.47;5452697;26;20159;-39
2024/04/18 03:29:30;;;;;;;2.83;1.90;;;;;;;4.76;100.00;101657.47;5451413;26;19991;-39
2024/04/18 03:31:55;;;;;;;3.23;2.00;;;;;;;4.73;100.00;101657.81;5452785;26;20003;-39
2024/04/18 03:34:20;;;;;;;2.17;1.87;;;;;;;4.68;100.00;101663.69;5452710;26;20003;-39
2024/04/18 03:36:55;;;;;;;3.13;2.00;;;;;;;4.74;100.00;101662.19;5452823;26;20347;-39
2024/04/18 03:39:20;;;;;;;4.05;2.05;;;;;;;4.63;100.00;101674.06;5452700;26;20041;-39
2024/04/18 03:41:46;;;;;;;3.50;1.70;;;;;;;4.65;100.00;101672.09;5456196;26;20010;-39
2024/04/18 03:44:12;;;;;;;;;;;;;;;4.74;100.00;101681.78;5457381;26;20485;-39
2024/04/18 03:46:38;;;;;;;2.80;1.60;;;;;;;4.37;100.00;101648.38;5456212;26;19925;-39
2024/04/18 03:49:03;;;;;;;4.63;1.90;;;;;;;4.53;100.00;101674.28;5456256;26;20514;-39
2024/04/18 03:51:30;;;;;;;2.67;1.40;;;;;;;4.42;100.00;101674.63;5456024;26;20001;-39
2024/04/18 03:53:55;;;;;;;;;;;;;;;4.57;100.00;101685.50;5457254;26;20001;-39
2024/04/18 03:56:20;;;;;;;2.70;1.52;;;;;;;4.35;100.00;101666.47;5456347;26;19924;-38
2024/04/18 03:58:46;;;;;;;2.13;1.60;;;;;;;4.36;100.00;101684.19;5456448;26;20009;-38
2024/04/18 04:01:11;;;;;;;2.47;1.90;;;;;;;4.37;100.00;101691.22;5456955;26;19995;-39
2024/04/18 04:03:36;;;;;;;2.60;1.57;;;;;;;4.29;100.00;101685.03;5456008;26;20363;-39
2024/04/18 04:06:02;;;;;;;2.60;1.80;;;;;;;4.23;100.00;101678.50;5456632;26;19987;-39
2024/04/18 04:08:27;;;;;;;2.40;1.60;;;;;;;4.29;100.00;101693.88;5456591;26;19995;-39
2024/04/18 04:10:53;;;;;;;2.27;1.60;;;;;;;4.25;100.00;101705.97;5456262;26;19991;-39
2024/04/18 04:13:18;;;;;;;2.25;1.70;;;;;;;4.18;100.00;101696.91;5456102;26;20002;-39
2024/04/18 04:15:48;;;;;;;2.57;1.77;;;;;;;4.20;100.00;101711.00;5456154;26;20106;-39
2024/04/18 04:18:13;;;;;;;3.50;1.65;;;;;;;4.18;100.00;101717.50;5455873;26;20006;-39
2024/04/18 04:20:38;;;;;;;2.40;1.77;;;;;;;4.12;100.00;101719.03;5456404;26;20419;-39
2024/04/18 04:23:03;;;;;;;4.00;2.33;;;;;;;4.04;100.00;101719.84;5456293;26;19995;-39
2024/04/18 04:25:29;;;;;;;1.90;1.70;;;;;;;4.07;100.00;101726.72;5455864;26;20029;-39
2024/04/18 04:27:54;;;;;;;2.50;1.63;;;;;;;4.12;100.00;101729.72;5455593;26;19999;-39
2024/04/18 04:30:19;;;;;;;9.63;1.70;;;;;;;4.03;100.00;101728.03;5455659;26;20006;-39
2024/04/18 04:32:45;;;;;;;2.47;1.73;;;;;;;4.08;100.00;101737.25;5455157;26;20006;-39
2024/04/18 04:35:12;;;;;;;3.20;1.83;;;;;;;4.07;100.00;101748.13;5455626;26;20005;-39
2024/04/18 04:37:38;;;;;;;2.70;1.80;;;;;;;3.96;100.00;101743.94;5454813;26;20011;-39
2024/04/18 04:40:04;;;;;;;2.75;1.70;;;;;;;3.98;100.00;101749.13;5455821;26;19999;-39
2024/04/18 04:42:30;;;;;;;2.55;1.70;;;;;;;3.94;100.00;101758.47;5455114;26;20023;-39
2024/04/18 04:44:55;;;;;;;2.80;1.80;;;;;;;3.96;100.00;101761.84;5453743;26;20006;-39
2024/04/18 04:47:21;;;;;;;3.72;2.08;;;;;;;3.96;100.00;101762.69;5455137;26;20068;-39
2024/04/18 04:49:46;;;;;;;2.47;1.50;;;;;;;3.96;100.00;101759.16;5454898;26;19995;-39
2024/04/18 04:52:11;;;;;;;2.50;1.87;;;;;;;3.95;100.00;101765.50;5455151;26;20304;-39
2024/04/18 04:54:37;;;;;;;3.60;1.90;;;;;;;3.93;100.00;101771.03;5455308;26;20438;-39
2024/04/18 04:57:03;;;;;;;5.68;1.70;;;;;;;3.83;100.00;101755.13;5455178;26;20368;-39
2024/04/18 04:59:28;;;;;;;2.25;1.58;;;;;;;4.01;100.00;101776.41;5455515;26;20475;-39
2024/04/18 05:01:54;;;;;;;3.50;1.90;;;;;;;3.92;100.00;101779.22;5455349;26;20420;-39
2024/04/18 05:04:19;;;;;;;2.33;1.93;;;;;;;3.97;100.00;101771.53;5456157;26;20006;-39
2024/04/18 05:06:44;;;;;;;3.30;1.60;;;;;;;4.01;100.00;101784.44;5455739;26;20028;-39
2024/04/18 05:09:10;;;;;;;2.40;1.70;;;;;;;4.02;100.00;101788.78;5455440;26;20404;-39
2024/04/18 05:11:36;;;;;;;3.30;1.60;;;;;;;4.08;100.00;101789.94;5455032;26;20006;-39
2024/04/18 05:14:01;;;;;;;2.53;1.65;;;;;;;4.05;100.00;101787.59;5455930;26;19999;-39
2024/04/18 05:16:27;;;;;;;2.15;1.90;;;;;;;4.04;100.00;101797.47;5455204;26;20338;-39
2024/04/18 05:18:52;;;;;;;3.00;1.87;;;;;;;4.10;100.00;101802.19;5455198;26;19998;-39
2024/04/18 05:21:18;;;;;;;2.17;1.40;;;;;;;4.06;100.00;101800.00;5455171;26;20009;-39
2024/04/18 05:23:43;;;;;;;3.80;1.77;;;;;;;4.17;100.00;101802.34;5455379;26;19995;-39
2024/04/18 05:26:09;;;;;;;2.87;1.50;;;;;;;4.26;100.00;101804.03;5454520;26;20446;-39
2024/04/18 05:28:41;;;;;;;4.35;2.05;;;;;;;4.36;100.00;101807.38;5455233;26;20496;-39
2024/04/18 05:31:09;;;;;;;3.10;1.40;;;;;;;4.48;100.00;101815.91;5454949;26;20003;-39
2024/04/18 05:33:35;;;;;;;3.08;1.42;;;;;;;4.64;100.00;101812.41;5454524;26;19999;-39
2024/04/18 05:36:00;;;;;;;2.95;1.38;;;;;;;4.74;100.00;101814.91;5454609;26;20156;-39
2024/04/18 05:38:26;;;;;;;3.53;1.80;;;;;;;4.83;100.00;101816.56;5454605;26;20010;-39
2024/04/18 05:40:52;;;;;;;2.28;1.30;;;;;;;4.86;100.00;101819.75;5455252;26;20469;-39
2024/04/18 05:43:18;;;;;;;3.33;1.50;;;;;;;5.04;100.00;101832.13;5454945;26;20010;-39
2024/04/18 05:45:48;;;;;;;2.38;1.40;;;;;;;5.03;100.00;101819.72;5454652;26;20322;-39
2024/04/18 05:48:13;;;;;;;3.58;1.65;;;;;;;5.15;100.00;101827.22;5454221;26;20447;-39
2024/04/18 05:50:39;;;;;;;2.45;1.40;;;;;;;5.34;100.00;101826.00;5454825;26;20009;-39
2024/04/18 05:53:05;;;;;;;3.50;1.47;;;;;;;5.30;100.00;101830.03;5454501;26;20013;-39
2024/04/18 05:55:30;;;;;;;5.28;1.40;;;;;;;5.40;100.00;101837.88;5454663;26;20260;-39
2024/04/18 05:57:56;;;;;;;1.87;1.27;;;;;;;5.42;100.00;101846.63;5455007;26;20001;-39
2024/04/18 06:00:21;;;;;;;3.27;1.30;;;;;;;5.46;100.00;101844.41;5455248;26;19998;-39
2024/04/18 06:02:46;;;;;;;2.60;1.37;;;;;;;5.47;100.00;101859.50;5453735;26;20007;-39
2024/04/18 06:05:11;;;;;;;4.07;1.80;;;;;;;5.43;100.00;101850.97;5455689;26;20010;-39
2024/04/18 06:07:37;;;;;;;3.47;2.13;;;;;;;5.51;100.00;101866.19;5454419;26;20006;-39
2024/04/18 06:10:02;;;;;;;2.90;1.90;;;;;;;5.49;100.00;101852.13;5454657;26;19995;-39
2024/04/18 06:12:27;;;;;;;3.43;1.53;;;;;;;5.57;100.00;101865.50;5454513;26;20011;-39
2024/04/18 06:14:53;;;;;;;3.10;1.70;;;;;;;5.67;100.00;101879.56;5454280;26;20330;-39
2024/04/18 06:17:18;;;;;;;3.37;1.87;;;;;;;5.63;100.00;101867.50;5454066;26;20067;-39
2024/04/18 06:19:48;;;;;;;4.22;2.13;;;;;;;5.73;100.00;101892.28;5454812;26;20232;-39
2024/04/18 06:22:13;;;;;;;3.55;2.00;;;;;;;5.73;100.00;101876.16;5454320;26;20006;-39
2024/04/18 06:24:41;;;;;;;5.37;1.97;;;;;;;5.73;100.00;101873.50;5454670;26;19991;-39
2024/04/18 06:27:06;;;;;;;3.60;1.98;;;;;;;5.89;100.00;101888.69;5453956;26;20005;-39
2024/04/18 06:29:32;;;;;;;3.28;2.10;;;;;;;5.97;100.00;101903.97;5454210;26;19995;-39
2024/04/18 06:31:57;;;;;;;4.83;1.97;;;;;;;6.01;100.00;101898.06;5454221;26;20332;-39
2024/04/18 06:34:23;;;;;;;3.77;1.83;;;;;;;6.08;100.00;101901.72;5454194;26;19995;-39
2024/04/18 06:36:48;;;;;;;3.47;1.92;;;;;;;6.06;100.00;101890.31;5454150;26;20007;-39
2024/04/18 06:39:13;;;;;;;3.60;2.13;;;;;;;6.16;100.00;101898.16;5453732;26;19999;-39
2024/04/18 06:41:39;;;;;;;3.37;1.97;;;;;;;6.24;100.00;101894.56;5453741;26;20704;-39
2024/04/18 06:44:04;;;;;;;4.80;1.97;;;;;;;6.20;100.00;101883.38;5453705;26;20017;-39
2024/04/18 06:46:29;;;;;;;3.00;1.93;;;;;;;6.38;100.00;101912.63;5453675;26;19999;-39
2024/04/18 06:48:55;;;;;;;4.87;2.57;;;;;;;6.34;100.00;101893.31;5454234;26;19995;-39
2024/04/18 06:51:20;;;;;;;3.80;1.77;;;;;;;6.51;100.00;101906.69;5453590;26;20459;-39
2024/04/18 06:53:45;;;;;;;4.23;2.00;;;;;;;6.53;100.00;101918.06;5453535;26;19990;-39
2024/04/18 06:56:11;;;;;;;6.13;2.20;;;;;;;6.60;100.00;101911.00;5453697;26;19991;-39
2024/04/18 06:58:36;;;;;;;5.10;2.57;;;;;;;6.67;100.00;101912.75;5454349;26;20036;-40
2024/04/18 07:01:02;;;;;;;3.47;2.10;;;;;;;6.80;100.00;101919.41;5453669;26;19999;-38
2024/04/18 07:03:27;;;;;;;5.47;2.30;;;;;;;6.88;100.00;101928.25;5453614;26;20213;-38
2024/04/18 07:05:52;;;;;;;5.40;2.27;;;;;;;6.81;100.00;101910.31;5453555;26;20010;-38
2024/04/18 07:08:18;;;;;;;3.42;1.85;;;;;;;7.02;100.00;101925.78;5453413;26;20007;-38
2024/04/18 07:10:43;;;;;;;3.70;1.92;;;;;;;7.00;100.00;101925.13;5453766;26;19991;-38
2024/04/18 07:13:09;;;;;;;5.20;2.00;;;;;;;7.12;100.00;101939.78;5453299;26;20003;-38
2024/04/18 07:15:34;;;;;;;4.13;2.50;;;;;;;7.16;100.00;101936.56;5455244;26;20284;-38
2024/04/18 07:18:00;;;;;;;5.97;2.03;;;;;;;7.19;100.00;101933.53;5457059;26;20006;-38
2024/04/18 07:20:25;;;;;;;3.20;1.70;;;;;;;7.28;100.00;101938.84;5457461;26;19995;-38
2024/04/18 07:22:51;;;;;;;4.57;1.63;;;;;;;7.34;100.00;101946.19;5455414;26;20068;-38
2024/04/18 07:25:16;;;;;;;4.07;1.70;;;;;;;7.39;100.00;101952.69;5457226;26;20003;-39
2024/04/18 07:27:41;;;;;;;8.27;2.10;;;;;;;7.44;100.00;101952.97;5456544;26;20458;-39
2024/04/18 07:30:08;;;;;;;8.97;1.90;;;;;;;7.52;100.00;101956.59;5457188;26;20064;-39
2024/04/18 07:32:33;;;;;;;5.38;1.60;;;;;;;7.55;100.00;101954.34;5456094;26;20022;-39
2024/04/18 07:34:59;;;;;;;5.10;2.33;;;;;;;7.64;100.00;101953.25;5456570;26;20114;-39
2024/04/18 07:37:25;;;;;;;5.05;1.70;;;;;;;7.66;100.00;101950.38;5456022;26;20007;-39
2024/04/18 07:39:50;;;;;;;3.37;1.50;;;;;;;7.77;100.00;101949.94;5456944;26;20006;-39
2024/04/18 07:42:16;;;;;;;3.77;1.37;;;;;;;7.88;100.00;101954.03;5456007;26;20001;-39
2024/04/18 07:44:41;;;;;;;3.53;1.50;;;;;;;7.92;100.00;101939.16;5456030;26;20126;-39
2024/04/18 07:47:07;;;;;;;4.65;1.73;;;;;;;8.03;100.00;101948.63;5455942;26;20013;-39
2024/04/18 07:49:32;;;;;;;4.60;1.47;;;;;;;8.15;100.00;101949.78;5456549;26;20372;-39
2024/04/18 07:51:57;;;;;;;4.40;1.70;;;;;;;8.19;100.00;101960.00;5456126;26;20456;-39
2024/04/18 07:54:23;;;;;;;4.47;1.37;;;;;;;8.18;100.00;101952.13;5456488;26;20068;-39
2024/04/18 07:56:48;;;;;;;2.92;1.40;;;;;;;8.25;100.00;101961.97;5456071;26;20003;-39
2024/04/18 07:59:15;;;;;;;5.93;1.80;;;;;;;8.34;100.00;101972.63;5456896;26;20005;-39
2024/04/18 08:01:41;;;;;;;2.72;1.50;;;;;;;8.39;100.00;101964.84;5456260;26;20496;-39
2024/04/18 08:04:07;;;;;;;5.47;1.45;;;;;;;8.51;100.00;101968.75;5456864;26;20007;-39
2024/04/18 08:06:32;;;;;;;4.95;2.35;;;;;;;8.59;100.00;101975.84;5455987;26;20315;-39
2024/04/18 08:08:59;;;;;;;5.78;1.60;;;;;;;8.66;100.00;101979.47;5456191;26;19990;-39
2024/04/18 08:11:25;;;;;;;3.20;1.27;;;;;;;8.64;100.00;101970.75;5455802;26;20002;-39
2024/04/18 08:13:50;;;;;;;3.72;1.33;;;;;;;8.69;100.00;101976.41;5456175;26;19999;-39
2024/04/18 08:16:15;;;;;;;1.95;0.90;;;;;;;8.73;100.00;101972.28;5455692;26;20006;-39
2024/04/18 08:18:41;;;;;;;3.78;1.10;;;;;;;8.79;100.00;101982.31;5456626;26;19995;-39
2024/04/18 08:21:06;;;;;;;2.73;1.13;;;;;;;8.77;100.00;101982.50;5456682;26;20006;-39
2024/04/18 08:23:31;;;;;;;2.30;1.20;;;;;;;8.68;100.00;101982.81;5456100;26;19999;-39
2024/04/18 08:25:57;;;;;;;2.40;1.10;;;;;;;8.64;100.00;101992.31;5455195;26;20427;-39
2024/04/18 08:28:22;;;;;;;2.73;1.20;;;;;;;8.67;100.00;101991.94;5455677;26;20612;-39
2024/04/18 08:30:47;;;;;;;4.73;0.97;;;;;;;8.60;100.00;101996.44;5455681;26;20327;-39
2024/04/18 08:33:13;;;;;;;2.03;0.80;;;;;;;8.52;100.00;101990.09;5455217;26;19995;-39
2024/04/18 08:35:41;;;;;;;3.27;0.97;;;;;;;8.50;100.00;101997.56;5455663;26;20097;-39
2024/04/18 08:38:08;;;;;;;7.10;1.00;;;;;;;8.47;100.00;102007.88;5455487;26;20018;-39
2024/04/18 08:40:33;;;;;;;2.72;1.15;;;;;;;8.50;100.00;102008.34;5455458;26;19999;-39
2024/04/18 08:42:59;;;;;;;4.32;1.02;;;;;;;8.50;100.00;102004.81;5455121;26;19995;-39
2024/04/18 08:45:25;;;;;;;4.43;1.20;;;;;;;8.48;100.00;102009.53;5455471;26;19999;-39
2024/04/18 08:47:52;;;;;;;;;;;;;;;8.64;100.00;102003.13;5455884;26;20044;-39
2024/04/18 08:50:19;;;;;;;2.08;0.80;;;;;;;8.49;100.00;102003.97;5455721;26;20018;-39
2024/04/18 08:52:45;;;;;;;0.82;0.55;;;;;;;8.51;100.00;102018.09;5455234;26;20010;-39
2024/04/18 08:55:11;;;;;;;2.38;0.80;;;;;;;8.55;100.00;102013.16;5455641;26;20283;-39
2024/04/18 08:57:48;;;;;;;3.00;0.77;;;;;;;8.62;100.00;102013.22;5455639;26;20002;-39
2024/04/18 09:00:13;;;;;;;1.23;0.63;;;;;;;8.62;100.00;102014.06;5455491;26;20005;-39
2024/04/18 09:02:39;;;;;;;2.75;0.85;;;;;;;8.61;100.00;102016.97;5455516;26;19995;-39
2024/04/18 09:05:04;;;;;;;4.22;0.88;;;;;;;8.56;100.00;102016.69;5455153;26;20040;-39
2024/04/18 09:07:30;;;;;;;1.50;0.70;;;;;;;8.63;100.00;102017.59;5456019;26;20064;-39
2024/04/18 09:10:03;;;;;;;2.90;0.77;;;;;;;8.71;100.00;102021.03;5455127;26;20067;-39
2024/04/18 09:12:29;;;;;;;1.23;0.68;;;;;;;8.96;100.00;102024.19;5455267;26;20315;-39
2024/04/18 09:14:54;;;;;;;2.43;0.80;;;;;;;9.33;100.00;102025.00;5455024;26;19995;-39
2024/04/18 09:17:20;;;;;;;2.05;0.60;;;;;;;9.60;100.00;102023.34;5454759;26;20003;-39
2024/04/18 09:19:45;;;;;;;2.60;0.88;;;;;;;9.55;100.00;102018.50;5454961;26;19994;-39
2024/04/18 09:22:11;;;;;;;2.47;0.80;;;;;;;9.42;100.00;102031.06;5454593;26;19995;-39
2024/04/18 09:24:43;;;;;;;;;;;;;;;9.55;100.00;102031.19;5455450;26;20535;-39
2024/04/18 09:27:08;;;;;;;3.28;0.60;;;;;;;9.36;100.00;102031.84;5455084;26;19931;-39
2024/04/18 09:29:33;;;;;;;1.67;0.77;;;;;;;9.36;100.00;102024.59;5454825;26;19995;-39
2024/04/18 09:32:00;;;;;;;1.63;0.80;;;;;;;9.44;100.00;102031.72;5455053;26;20006;-39
2024/04/18 09:34:26;;;;;;;2.90;0.80;;;;;;;9.44;100.00;102037.94;5454596;26;20212;-39
2024/04/18 09:36:52;;;;;;;1.75;0.70;;;;;;;9.31;100.00;102037.81;5454493;26;20031;-39
2024/04/18 09:39:28;;;;;;;1.70;0.80;;;;;;;9.37;100.00;102050.56;5454229;26;19991;-39
2024/04/18 09:42:00;;;;;;;4.13;0.70;;;;;;;9.29;100.00;102045.28;5454906;26;20064;-39
2024/04/18 09:44:30;;;;;;;1.55;0.50;;;;;;;9.29;100.00;102050.69;5454595;26;20034;-39
2024/04/18 09:46:56;;;;;;;2.78;0.50;;;;;;;9.24;100.00;102050.44;5454444;26;20009;-39
2024/04/18 09:49:23;;;;;;;0.90;0.40;;;;;;;9.20;100.00;102030.25;5454723;26;20064;-39
2024/04/18 09:51:48;;;;;;;;;;;;;;;9.40;100.00;102049.34;5431336;26;20000;-39
2024/04/18 09:54:14;;;;;;;1.00;0.45;;;;;;;9.53;100.00;102041.34;5418647;26;19931;-39
2024/04/18 09:56:39;;;;;;;;;;;;;;;9.93;100.00;102047.88;5419264;26;19991;-39
2024/04/18 09:59:06;;;;;;;1.75;0.50;;;;;;;10.28;100.00;102042.53;5418819;26;19932;-39
2024/04/18 10:01:32;;;;;;;1.60;0.60;;;;;;;10.24;100.00;102030.44;5418709;26;19992;-39
2024/04/18 10:03:57;;;;;;;1.52;0.80;;;;;;;10.12;100.00;102021.19;5419093;26;19995;-39
2024/04/18 10:06:29;;;;;;;1.17;0.60;;;;;;;10.05;100.00;102035.50;5418719;26;19991;-39
2024/04/18 10:08:56;;;;;;;4.13;0.77;;;;;;;9.97;100.00;102034.81;5419597;26;19992;-39
2024/04/18 10:11:24;;;;;;;1.60;0.80;;;;;;;9.93;100.00;102052.47;5418797;26;19991;-39
2024/04/18 10:13:50;;;;;;;9.95;1.63;;;;;;;9.82;100.00;102043.03;5418453;26;19995;-39
2024/04/18 10:16:15;;;;;;;1.85;0.73;;;;;;;9.75;100.00;102042.13;5418289;26;20010;-39
2024/04/18 10:18:42;;;;;;;2.10;0.60;;;;;;;9.63;100.00;102020.25;5418579;26;19996;-39
2024/04/18 10:21:11;;;;;;;1.95;0.70;;;;;;;9.68;100.00;102027.75;5418354;26;20002;-40
2024/04/18 10:23:46;;;;;;;1.92;0.70;;;;;;;9.69;100.00;102018.63;5418563;26;20023;-39
2024/04/18 10:26:15;;;;;;;3.22;0.98;;;;;;;9.72;100.00;102012.84;5418639;26;20057;-39
2024/04/18 10:28:41;;;;;;;2.92;1.00;;;;;;;9.81;100.00;102030.56;5417735;26;20321;-39
2024/04/18 10:31:07;;;;;;;;;;;;;;;10.06;100.00;102029.06;5419183;26;19999;-39
2024/04/18 10:33:34;;;;;;;3.05;1.00;;;;;;;10.33;100.00;102031.94;5417776;26;20346;-39
2024/04/18 10:35:59;;;;;;;3.22;0.90;;;;;;;10.73;100.00;102023.97;5418199;26;19991;-39
2024/04/18 10:38:26;;;;;;;1.65;1.00;;;;;;;11.00;100.00;102031.16;5417880;26;20089;-39
2024/04/18 10:41:00;;;;;;;1.65;1.00;;;;;;;11.22;100.00;102025.53;5418983;26;20016;-38
2024/04/18 10:43:27;;;;;;;2.13;1.00;;;;;;;11.48;100.00;102035.59;5417439;26;20513;-39
2024/04/18 10:45:54;;;;;;;1.90;1.13;;;;;;;11.60;100.00;102029.31;5417753;26;20003;-39
2024/04/18 10:48:19;;;;;;;2.85;0.90;;;;;;;11.58;100.00;102030.59;5417719;26;19999;-39
2024/04/18 10:50:49;;;;;;;3.17;1.02;;;;;;;11.76;100.00;102021.81;5417400;26;20009;-39
2024/04/18 10:53:14;;;;;;;1.63;0.90;;;;;;;11.77;100.00;102018.91;5417318;26;20010;-39
2024/04/18 10:55:40;;;;;;;3.92;1.25;;;;;;;11.66;100.00;102015.97;5418317;26;20324;-39
2024/04/18 10:58:05;;;;;;;2.35;0.98;;;;;;;11.89;100.00;102029.97;5417739;26;20003;-39
2024/04/18 11:00:31;;;;;;;1.60;0.70;;;;;;;12.22;100.00;102029.06;5418379;26;19996;-39
2024/04/18 11:02:57;;;;;;;;;;;;;;;12.46;100.00;102036.50;5418088;26;20324;-39
2024/04/18 11:05:22;;;;;;;2.20;0.93;;;;;;;12.16;96.96;102027.22;5418210;26;19991;-39
2024/04/18 11:07:50;;;;;;;2.37;0.63;;;;;;;12.00;87.52;102031.19;5417360;26;20061;-39
2024/04/18 11:10:16;;;;;;;2.58;1.05;;;;;;;11.82;85.92;102026.44;5417801;26;19999;-39
2024/04/18 11:12:42;;;;;;;2.17;0.63;;;;;;;11.96;90.40;102027.25;5416970;26;20002;-39
2024/04/18 11:15:07;;;;;;;1.20;0.60;;;;;;;11.97;90.45;102040.59;5417448;26;20424;-39
2024/04/18 11:17:36;;;;;;;2.20;0.60;;;;;;;11.90;86.79;102031.63;5416800;26;20064;-39
2024/04/18 11:20:01;;;;;;;1.48;0.65;;;;;;;12.27;88.97;102037.38;5417402;26;20007;-39